Afton, Michigan
Current Conditions -  °F | °C
As of 1:17 AM on Sunday 23 Nov 2014 (Local Time) from KSLH Reporting Station
Haze Haze  
Wind Chill: 38°   Ceiling: 200
Heat Index: 38°   Visibility: 0.75mi
Dew Point: 38°   Wind: 0mph
Humidity: 100%   Direction: NA
Pressure: 29.81"   Gusts: NA
Location:  45.36°N, 84.47°W
Report Text: KSLH 230617Z AUTO 00000KT 3/4SM BR OVC002 03/03 A2981 RMK AO2 T00350035
Loading
Personal Weather Stations






























Interactive Weather Map New forecast layout! Learn more

10-Day Weather Forecast

Advertisements
Track Severe Weather on mobile